Time;durP1;ratioP1;P1;durP2;ratioP2;P2;SDS_P1;SDS_P2;PMS_P1;PMS_P2;Temp;Humidity;BMP_temperature;BMP_pressure;BME280_temperature;BME280_humidity;BME280_pressure;Samples;Min_cycle;Max_cycle;Signal;HPM_P1;HPM_P2
2023/09/20 00:01:08;;;;;;;1.80;0.98;;;19.10;76.40;;;;;;950872;146;27283;-74
2023/09/20 00:03:35;;;;;;;1.10;0.95;;;19.20;76.00;;;;;;952794;146;27332;-76
2023/09/20 00:06:02;;;;;;;1.25;0.90;;;19.30;75.80;;;;;;936344;149;27369;-78
2023/09/20 00:08:29;;;;;;;0.78;0.75;;;19.40;75.40;;;;;;949498;146;27417;-78
2023/09/20 00:10:55;;;;;;;1.02;0.93;;;19.60;75.20;;;;;;951667;146;27351;-79
2023/09/20 00:13:21;;;;;;;1.00;1.00;;;19.70;74.90;;;;;;938038;149;27419;-78
2023/09/20 00:15:48;;;;;;;1.87;1.22;;;19.80;74.60;;;;;;938979;149;27349;-77
2023/09/20 00:18:14;;;;;;;3.00;0.98;;;19.90;74.20;;;;;;938846;150;27307;-79
2023/09/20 00:20:41;;;;;;;1.22;1.12;;;20.00;73.90;;;;;;930384;151;27470;-79
2023/09/20 00:23:09;;;;;;;1.12;1.02;;;20.10;73.70;;;;;;937174;150;27365;-79
2023/09/20 00:25:34;;;;;;;1.10;0.98;;;20.10;73.40;;;;;;944501;147;27425;-78
2023/09/20 00:28:02;;;;;;;1.42;1.00;;;20.20;73.30;;;;;;954770;146;27340;-75
2023/09/20 00:30:27;;;;;;;1.00;0.80;;;20.30;73.10;;;;;;950247;147;27989;-78
2023/09/20 00:32:54;;;;;;;1.95;1.00;;;20.30;72.80;;;;;;944705;147;27616;-79
2023/09/20 00:35:21;;;;;;;1.80;0.80;;;20.30;72.50;;;;;;942371;149;27315;-79
2023/09/20 00:37:47;;;;;;;4.47;1.20;;;20.40;72.40;;;;;;942094;149;27344;-77
2023/09/20 00:40:18;;;;;;;0.90;0.90;;;20.40;72.30;;;;;;941996;149;27458;-78
2023/09/20 00:42:43;;;;;;;1.50;1.40;;;20.50;72.30;;;;;;941820;149;27478;-78
2023/09/20 00:45:10;;;;;;;1.22;1.12;;;20.40;71.90;;;;;;942224;149;27360;-77
2023/09/20 00:47:40;;;;;;;0.98;0.90;;;20.50;71.70;;;;;;942984;149;27329;-76
2023/09/20 00:50:05;;;;;;;3.12;1.57;;;20.40;71.50;;;;;;943673;149;27740;-78
2023/09/20 00:52:29;;;;;;;1.40;1.30;;;20.40;71.50;;;;;;942056;149;27337;-78
2023/09/20 00:54:57;;;;;;;2.27;1.75;;;20.30;71.30;;;;;;943306;149;27329;-78
2023/09/20 00:57:23;;;;;;;1.15;0.98;;;20.30;71.30;;;;;;942826;149;27368;-78
2023/09/20 00:59:49;;;;;;;1.27;1.02;;;20.20;71.30;;;;;;941417;149;27409;-79
2023/09/20 01:02:16;;;;;;;1.30;1.20;;;20.10;71.30;;;;;;942517;149;27358;-79
2023/09/20 01:04:42;;;;;;;1.20;1.10;;;20.00;71.30;;;;;;942277;149;27310;-78
2023/09/20 01:07:09;;;;;;;1.65;1.22;;;19.90;71.40;;;;;;942088;149;27288;-78
2023/09/20 01:09:36;;;;;;;1.62;1.27;;;19.80;71.40;;;;;;942909;149;27783;-74
2023/09/20 01:12:02;;;;;;;1.10;1.02;;;19.70;71.60;;;;;;942606;149;27362;-79
2023/09/20 01:14:29;;;;;;;1.25;1.00;;;19.60;71.70;;;;;;942186;149;27422;-79
2023/09/20 01:16:55;;;;;;;1.12;1.02;;;19.60;71.90;;;;;;941834;149;27298;-72
2023/09/20 01:19:22;;;;;;;2.15;1.27;;;19.50;72.20;;;;;;941958;149;27317;-76
2023/09/20 01:21:49;;;;;;;1.22;1.10;;;19.40;72.40;;;;;;942185;149;27446;-72
2023/09/20 01:24:17;;;;;;;1.55;1.20;;;19.30;72.80;;;;;;944044;149;27426;-72
2023/09/20 01:26:42;;;;;;;1.47;1.20;;;19.20;72.90;;;;;;948058;146;27302;-72
2023/09/20 01:29:08;;;;;;;1.40;1.20;;;19.10;73.10;;;;;;942116;149;27368;-73
2023/09/20 01:31:37;;;;;;;1.50;1.40;;;19.00;73.40;;;;;;947504;147;27400;-76
2023/09/20 01:34:02;;;;;;;1.47;1.37;;;19.00;73.60;;;;;;933794;149;27358;-72
2023/09/20 01:36:28;;;;;;;2.45;1.30;;;18.90;73.90;;;;;;933726;149;27399;-73
2023/09/20 01:38:55;;;;;;;1.77;1.50;;;18.80;74.00;;;;;;945425;147;27329;-73
2023/09/20 01:41:22;;;;;;;1.40;1.30;;;18.80;74.40;;;;;;951835;147;27346;-75
2023/09/20 01:43:48;;;;;;;1.82;1.22;;;18.70;74.60;;;;;;931662;150;27382;-71
2023/09/20 01:46:15;;;;;;;3.80;1.50;;;18.60;74.80;;;;;;945272;147;27369;-73
2023/09/20 01:48:42;;;;;;;1.72;1.57;;;18.60;75.20;;;;;;942917;149;27345;-73
2023/09/20 01:51:08;;;;;;;1.98;1.60;;;18.50;75.30;;;;;;943668;149;27336;-76
2023/09/20 01:53:35;;;;;;;1.52;1.42;;;18.40;75.60;;;;;;943481;149;27377;-73
2023/09/20 01:56:01;;;;;;;1.57;1.47;;;18.40;75.90;;;;;;934621;147;27453;-72
2023/09/20 01:58:28;;;;;;;1.52;1.42;;;18.30;76.20;;;;;;931360;150;27317;-72
2023/09/20 02:00:54;;;;;;;1.42;1.35;;;18.30;76.40;;;;;;929633;150;27322;-73
2023/09/20 02:03:20;;;;;;;2.27;1.45;;;18.30;76.70;;;;;;933210;149;27381;-73
2023/09/20 02:05:47;;;;;;;1.85;1.50;;;18.20;77.10;;;;;;927172;150;27376;-73
2023/09/20 02:08:14;;;;;;;1.70;1.60;;;18.20;77.30;;;;;;952926;146;27435;-72
2023/09/20 02:10:41;;;;;;;1.60;1.50;;;18.10;77.50;;;;;;933833;149;27352;-73
2023/09/20 02:13:07;;;;;;;3.52;2.25;;;18.10;77.90;;;;;;925857;150;27449;-76
2023/09/20 02:15:36;;;;;;;1.82;1.50;;;18.10;78.20;;;;;;945697;147;27345;-72
2023/09/20 02:18:05;;;;;;;2.02;1.80;;;18.00;78.40;;;;;;943199;149;27387;-72
2023/09/20 02:20:34;;;;;;;1.85;1.75;;;18.00;78.90;;;;;;952551;147;27408;-72
2023/09/20 02:22:57;;;;;;;1.55;1.40;;;18.00;79.00;;;;;;945252;148;27344;-73
2023/09/20 02:25:24;;;;;;;1.50;1.30;;;17.90;80.00;;;;;;933623;149;27775;-72
2023/09/20 02:27:49;;;;;;;3.02;1.57;;;17.90;79.60;;;;;;936147;149;28847;-76
2023/09/20 02:30:17;;;;;;;1.50;1.40;;;17.80;80.00;;;;;;931408;149;27269;-76
2023/09/20 02:32:42;;;;;;;1.75;1.65;;;17.80;80.30;;;;;;934713;149;27269;-76
2023/09/20 02:35:09;;;;;;;1.55;1.45;;;17.80;80.60;;;;;;933551;149;27429;-75
2023/09/20 02:37:36;;;;;;;1.10;1.05;;;17.70;80.90;;;;;;950949;147;27338;-76
2023/09/20 02:40:13;;;;;;;2.08;1.37;;;17.70;81.20;;;;;;947742;147;27285;-76
2023/09/20 02:42:29;;;;;;;1.00;1.00;;;17.60;81.50;;;;;;943868;146;27565;-76
2023/09/20 02:44:56;;;;;;;1.40;1.30;;;17.60;81.80;;;;;;918430;150;27381;-75
2023/09/20 02:47:26;;;;;;;1.37;1.25;;;17.60;82.10;;;;;;933361;149;27349;-76
2023/09/20 02:49:49;;;;;;;1.55;1.45;;;17.60;82.40;;;;;;934326;152;27284;-76
2023/09/20 02:52:17;;;;;;;1.40;1.30;;;17.60;81.90;;;;;;934032;149;27325;-76
2023/09/20 02:54:43;;;;;;;2.30;1.47;;;17.50;82.90;;;;;;932619;152;27287;-76
2023/09/20 02:57:10;;;;;;;2.02;1.40;;;17.50;83.30;;;;;;934916;149;27462;-76
2023/09/20 02:59:35;;;;;;;1.40;1.30;;;17.50;83.40;;;;;;937941;151;27310;-76
2023/09/20 03:02:04;;;;;;;1.42;1.32;;;17.50;83.80;;;;;;937393;151;27346;-76
2023/09/20 03:04:28;;;;;;;1.82;1.67;;;17.50;84.00;;;;;;935429;151;27412;-76
2023/09/20 03:06:55;;;;;;;1.90;1.80;;;17.50;84.20;;;;;;937263;148;27360;-76
2023/09/20 03:09:24;;;;;;;1.47;1.37;;;17.50;84.50;;;;;;934309;151;27447;-76
2023/09/20 03:11:48;;;;;;;2.62;1.42;;;17.50;84.80;;;;;;933327;152;27408;-76
2023/09/20 03:14:14;;;;;;;1.25;1.17;;;17.40;85.20;;;;;;933836;152;27468;-76
2023/09/20 03:16:44;;;;;;;2.05;1.30;;;17.40;85.50;;;;;;932825;152;27479;-76
2023/09/20 03:19:09;;;;;;;3.55;1.67;;;17.40;85.90;;;;;;931537;151;27565;-76
2023/09/20 03:21:34;;;;;;;2.65;1.70;;;17.40;86.40;;;;;;930761;152;28378;-76
2023/09/20 03:24:05;;;;;;;1.80;1.60;;;17.40;86.90;;;;;;931587;151;27347;-76
2023/09/20 03:26:27;;;;;;;1.60;1.50;;;17.40;87.40;;;;;;937936;150;27319;-76
2023/09/20 03:28:56;;;;;;;2.25;1.60;;;17.40;87.70;;;;;;944817;149;27354;-76
2023/09/20 03:31:22;;;;;;;3.08;1.60;;;17.40;88.00;;;;;;948429;149;27339;-76
2023/09/20 03:33:47;;;;;;;2.45;1.80;;;17.40;88.30;;;;;;925804;151;27312;-76
2023/09/20 03:36:17;;;;;;;1.87;1.70;;;17.40;88.40;;;;;;925756;152;28007;-75
2023/09/20 03:38:43;;;;;;;2.08;1.72;;;17.50;88.80;;;;;;938849;149;27356;-75
2023/09/20 03:41:10;;;;;;;4.33;2.12;;;17.50;88.90;;;;;;930576;153;28276;-75
2023/09/20 03:43:37;;;;;;;1.87;1.65;;;17.50;89.10;;;;;;929084;153;27427;-74
2023/09/20 03:46:03;;;;;;;2.25;1.62;;;17.50;89.20;;;;;;943694;149;27305;-75
2023/09/20 03:48:29;;;;;;;1.55;1.32;;;17.50;89.30;;;;;;941652;149;27356;-75
2023/09/20 03:50:56;;;;;;;2.40;1.65;;;17.50;89.50;;;;;;927761;150;27349;-74
2023/09/20 03:53:23;;;;;;;1.80;1.65;;;17.40;89.60;;;;;;942611;149;27278;-74
2023/09/20 03:55:49;;;;;;;2.50;1.80;;;17.40;89.60;;;;;;933835;147;27431;-74
2023/09/20 03:58:16;;;;;;;1.50;1.22;;;17.40;89.90;;;;;;943152;149;27469;-75
2023/09/20 04:00:45;;;;;;;1.55;1.45;;;17.40;90.00;;;;;;949960;147;27442;-74
2023/09/20 04:03:11;;;;;;;1.47;1.37;;;17.40;90.00;;;;;;940172;148;27276;-74
2023/09/20 04:05:35;;;;;;;1.60;1.50;;;17.40;90.20;;;;;;939774;148;27340;-74
2023/09/20 04:08:04;;;;;;;1.65;1.55;;;17.40;90.30;;;;;;933095;149;27341;-75
2023/09/20 04:10:29;;;;;;;1.67;1.57;;;17.40;90.50;;;;;;933087;149;27389;-74
2023/09/20 04:12:55;;;;;;;1.47;1.37;;;17.40;90.60;;;;;;932201;149;27347;-74
2023/09/20 04:15:23;;;;;;;1.50;1.40;;;17.30;91.00;;;;;;933443;149;27324;-74
2023/09/20 04:17:48;;;;;;;2.55;1.55;;;17.30;91.00;;;;;;931754;149;27349;-74
2023/09/20 04:20:16;;;;;;;2.17;1.77;;;17.30;91.20;;;;;;932757;149;27341;-75
2023/09/20 04:22:42;;;;;;;2.22;1.27;;;17.30;91.30;;;;;;933534;149;27382;-74
2023/09/20 04:25:10;;;;;;;1.80;1.47;;;17.30;91.50;;;;;;927093;150;27354;-74
2023/09/20 04:27:35;;;;;;;2.00;1.70;;;17.30;91.70;;;;;;942460;150;27342;-74
2023/09/20 04:30:01;;;;;;;1.60;1.50;;;17.30;91.90;;;;;;942670;149;27318;-75
2023/09/20 04:32:28;;;;;;;1.52;1.42;;;17.30;92.10;;;;;;951447;147;27335;-74
2023/09/20 04:34:56;;;;;;;1.27;1.15;;;17.30;92.20;;;;;;930074;150;27366;-74
2023/09/20 04:37:22;;;;;;;2.25;1.92;;;17.30;92.30;;;;;;951795;147;27242;-74
2023/09/20 04:39:48;;;;;;;1.65;1.55;;;17.30;92.60;;;;;;943658;147;27810;-74
2023/09/20 04:42:14;;;;;;;1.55;1.45;;;17.30;92.70;;;;;;951234;147;27348;-76
2023/09/20 04:44:43;;;;;;;3.42;1.75;;;17.30;92.90;;;;;;953291;147;27308;-74
2023/09/20 04:47:10;;;;;;;2.02;1.60;;;17.30;93.00;;;;;;951333;148;27411;-76
2023/09/20 04:49:40;;;;;;;2.50;1.77;;;17.30;93.20;;;;;;944178;148;27357;-76
2023/09/20 04:52:09;;;;;;;2.83;1.77;;;17.40;93.30;;;;;;953856;147;27365;-76
2023/09/20 04:54:33;;;;;;;1.55;1.45;;;17.40;93.50;;;;;;937126;150;27424;-76
2023/09/20 04:56:59;;;;;;;1.45;1.35;;;17.40;93.60;;;;;;948495;146;27388;-76
2023/09/20 04:59:26;;;;;;;1.60;1.40;;;17.40;93.60;;;;;;945279;147;27307;-76
2023/09/20 05:01:52;;;;;;;1.55;1.45;;;17.40;93.70;;;;;;932660;149;27392;-76
2023/09/20 05:04:20;;;;;;;2.85;1.62;;;17.40;93.70;;;;;;932196;149;27336;-76
2023/09/20 05:06:45;;;;;;;3.83;2.20;;;17.50;93.80;;;;;;939605;150;27412;-76
2023/09/20 05:09:12;;;;;;;1.85;1.60;;;17.50;93.90;;;;;;934019;149;27474;-76
2023/09/20 05:11:39;;;;;;;1.55;1.40;;;17.50;93.90;;;;;;933907;149;27339;-76
2023/09/20 05:14:08;;;;;;;3.17;1.57;;;17.50;94.00;;;;;;933328;149;27446;-76
2023/09/20 05:16:35;;;;;;;1.45;1.35;;;17.50;94.10;;;;;;943329;147;27321;-76
2023/09/20 05:19:01;;;;;;;1.42;1.32;;;17.50;94.10;;;;;;934394;149;27326;-76
2023/09/20 05:21:28;;;;;;;2.08;1.82;;;17.50;94.30;;;;;;935249;149;27359;-76
2023/09/20 05:23:54;;;;;;;1.98;1.42;;;17.60;94.40;;;;;;931974;149;28163;-76
2023/09/20 05:26:22;;;;;;;1.50;1.40;;;17.60;94.50;;;;;;933867;149;27333;-76
2023/09/20 05:28:48;;;;;;;1.52;1.42;;;17.60;94.60;;;;;;932800;149;27256;-76
2023/09/20 05:31:15;;;;;;;1.90;1.70;;;17.60;94.60;;;;;;942637;149;27377;-76
2023/09/20 05:33:41;;;;;;;1.77;1.67;;;17.70;94.70;;;;;;947006;146;27438;-76
2023/09/20 05:36:07;;;;;;;2.00;1.80;;;17.70;94.80;;;;;;945088;147;27331;-75
2023/09/20 05:38:34;;;;;;;1.70;1.60;;;17.70;95.10;;;;;;950160;147;27319;-76
2023/09/20 05:41:01;;;;;;;2.95;1.80;;;17.80;95.70;;;;;;927024;150;27688;-76
2023/09/20 05:43:27;;;;;;;2.25;1.75;;;17.90;96.50;;;;;;942686;147;27370;-76
2023/09/20 05:45:54;;;;;;;1.82;1.50;;;18.00;97.00;;;;;;949760;146;27269;-76
2023/09/20 05:48:20;;;;;;;1.42;1.32;;;18.20;96.50;;;;;;941656;149;27394;-76
2023/09/20 05:50:47;;;;;;;1.60;1.50;;;18.40;95.80;;;;;;965340;146;27303;-76
2023/09/20 05:53:14;;;;;;;1.60;1.50;;;18.50;95.10;;;;;;944487;149;27361;-76
2023/09/20 05:55:40;;;;;;;2.25;1.52;;;18.70;94.60;;;;;;953633;148;27316;-76
2023/09/20 05:58:07;;;;;;;2.85;1.60;;;18.80;95.20;;;;;;951325;146;27317;-76
2023/09/20 06:00:36;;;;;;;1.67;1.57;;;19.00;96.10;;;;;;954122;146;27319;-74
2023/09/20 06:03:04;;;;;;;1.45;1.35;;;19.20;96.10;;;;;;951885;147;27853;-75
2023/09/20 06:05:29;;;;;;;1.45;1.35;;;19.50;95.00;;;;;;950611;147;27429;-74
2023/09/20 06:07:57;;;;;;;2.27;1.42;;;19.70;93.50;;;;;;951568;147;27710;-74
2023/09/20 06:10:22;;;;;;;1.60;1.50;;;19.90;92.00;;;;;;933217;150;27391;-74
2023/09/20 06:12:50;;;;;;;1.70;1.35;;;20.10;90.70;;;;;;950291;147;27344;-74
2023/09/20 06:15:15;;;;;;;1.55;1.37;;;20.20;89.70;;;;;;950949;147;27349;-74
2023/09/20 06:17:47;;;;;;;3.17;1.70;;;20.20;88.50;;;;;;943609;149;27267;-74
2023/09/20 06:20:19;;;;;;;1.72;1.62;;;20.20;87.80;;;;;;942563;149;27353;-75
2023/09/20 06:22:38;;;;;;;1.27;1.17;;;20.20;87.40;;;;;;950213;147;27356;-74
2023/09/20 06:25:05;;;;;;;2.55;1.45;;;20.30;88.00;;;;;;943667;147;27880;-73
2023/09/20 06:27:31;;;;;;;1.30;1.17;;;20.30;90.10;;;;;;947836;146;27295;-74
2023/09/20 06:29:58;;;;;;;3.30;1.75;;;20.40;90.00;;;;;;945401;146;27432;-74
2023/09/20 06:32:24;;;;;;;1.82;1.27;;;20.50;89.20;;;;;;949076;147;27434;-73
2023/09/20 06:34:51;;;;;;;2.40;1.50;;;20.60;88.20;;;;;;930486;149;27263;-73
2023/09/20 06:37:17;;;;;;;2.83;1.70;;;20.70;87.40;;;;;;945147;147;27425;-74
2023/09/20 06:39:44;;;;;;;1.77;1.52;;;20.80;86.90;;;;;;943991;147;27354;-74
2023/09/20 06:42:14;;;;;;;3.45;1.92;;;20.90;86.90;;;;;;932955;149;27370;-75
2023/09/20 06:44:40;;;;;;;1.62;1.52;;;21.00;88.10;;;;;;933343;149;27364;-73
2023/09/20 06:47:07;;;;;;;2.08;1.50;;;21.20;90.30;;;;;;951009;147;27384;-74
2023/09/20 06:49:33;;;;;;;3.08;1.98;;;21.50;90.40;;;;;;949991;147;27304;-74
2023/09/20 06:52:03;;;;;;;2.12;1.92;;;21.80;88.70;;;;;;950766;147;27349;-74
2023/09/20 06:54:26;;;;;;;1.57;1.22;;;22.10;86.00;;;;;;949422;147;27345;-74
2023/09/20 06:56:53;;;;;;;2.47;1.30;;;22.30;83.60;;;;;;942973;149;27300;-74
2023/09/20 06:59:19;;;;;;;2.15;1.62;;;22.40;81.60;;;;;;943527;149;27435;-74
2023/09/20 07:01:47;;;;;;;1.50;1.40;;;22.60;80.40;;;;;;934654;147;27483;-74
2023/09/20 07:04:12;;;;;;;1.50;1.40;;;22.60;79.20;;;;;;946922;147;28803;-74
2023/09/20 07:06:39;;;;;;;2.77;1.52;;;22.60;78.90;;;;;;948528;146;27245;-73
2023/09/20 07:09:08;;;;;;;2.55;1.67;;;22.70;78.30;;;;;;946593;146;27372;-73
2023/09/20 07:11:32;;;;;;;1.47;1.37;;;22.70;77.90;;;;;;943758;147;27436;-73
2023/09/20 07:14:01;;;;;;;1.50;1.40;;;22.70;77.70;;;;;;936472;149;27351;-72
2023/09/20 07:16:25;;;;;;;1.60;1.40;;;22.70;77.50;;;;;;932411;149;27327;-73
2023/09/20 07:18:52;;;;;;;2.02;1.10;;;22.70;77.40;;;;;;933384;150;27327;-75
2023/09/20 07:21:20;;;;;;;1.55;1.45;;;22.70;77.20;;;;;;932996;149;27306;-75
2023/09/20 07:23:45;;;;;;;1.98;1.60;;;22.70;77.20;;;;;;932261;149;27380;-73
2023/09/20 07:26:12;;;;;;;2.52;1.67;;;22.80;77.10;;;;;;948682;147;27383;-72
2023/09/20 07:28:39;;;;;;;3.72;1.47;;;22.80;76.90;;;;;;935717;149;27416;-75
2023/09/20 07:31:06;;;;;;;1.95;1.47;;;22.80;77.40;;;;;;930941;149;27340;-73
2023/09/20 07:33:31;;;;;;;2.90;1.35;;;22.90;76.50;;;;;;933590;149;27354;-73
2023/09/20 07:36:01;;;;;;;2.42;1.80;;;22.90;76.60;;;;;;931704;149;27524;-73
2023/09/20 07:38:25;;;;;;;4.58;1.90;;;23.00;76.70;;;;;;946973;146;27241;-72
2023/09/20 07:40:51;;;;;;;2.70;1.40;;;23.00;76.60;;;;;;927614;150;27264;-72
2023/09/20 07:43:18;;;;;;;2.15;1.32;;;23.10;76.50;;;;;;932533;149;27319;-75
2023/09/20 07:45:44;;;;;;;1.42;1.27;;;23.20;76.60;;;;;;942271;148;27452;-73
2023/09/20 07:48:16;;;;;;;1.50;1.40;;;23.40;76.90;;;;;;952049;145;27436;-72
2023/09/20 07:50:40;;;;;;;1.50;1.40;;;23.60;77.30;;;;;;951234;147;27317;-73
2023/09/20 07:53:10;;;;;;;1.57;1.47;;;23.70;77.10;;;;;;951328;147;27830;-76
2023/09/20 07:55:34;;;;;;;1.82;1.47;;;24.00;76.40;;;;;;932915;150;27363;-73
2023/09/20 07:58:00;;;;;;;1.50;1.40;;;24.10;75.40;;;;;;951215;146;27315;-72
2023/09/20 08:00:27;;;;;;;2.12;1.30;;;24.30;74.50;;;;;;950624;147;27286;-73
2023/09/20 08:02:54;;;;;;;2.42;1.30;;;24.40;73.60;;;;;;946550;148;27377;-74
2023/09/20 08:05:20;;;;;;;3.35;1.32;;;24.50;73.10;;;;;;942992;149;27426;-74
2023/09/20 08:07:46;;;;;;;2.25;1.50;;;24.70;72.80;;;;;;942684;149;27329;-73
2023/09/20 08:10:13;;;;;;;1.87;1.22;;;24.70;72.50;;;;;;950943;147;27388;-73
2023/09/20 08:12:40;;;;;;;1.82;1.30;;;24.80;72.20;;;;;;943524;149;27327;-73
2023/09/20 08:15:06;;;;;;;1.02;0.98;;;24.90;72.00;;;;;;943557;149;27454;-72
2023/09/20 08:20:21;;;;;;;2.02;1.40;;;25.20;71.60;;;;;;941980;149;27389;-74
2023/09/20 09:01:12;;;;;;;4.20;1.30;;;33.00;57.60;;;;;;920457;153;27904;-75
2023/09/20 09:03:38;;;;;;;1.27;1.10;;;32.90;56.50;;;;;;916291;153;27491;-76
2023/09/20 09:06:04;;;;;;;1.37;1.20;;;32.80;55.70;;;;;;916639;152;27294;-76
2023/09/20 09:08:31;;;;;;;1.00;1.00;;;32.50;55.40;;;;;;912003;153;27351;-75
2023/09/20 09:10:58;;;;;;;1.80;1.40;;;32.40;55.40;;;;;;910954;153;27365;-77
2023/09/20 09:13:24;;;;;;;1.90;1.12;;;32.30;55.60;;;;;;928516;150;27365;-75
2023/09/20 09:15:51;;;;;;;0.82;0.82;;;32.40;55.90;;;;;;918354;150;27345;-75
2023/09/20 09:18:20;;;;;;;2.27;1.30;;;32.50;56.10;;;;;;917722;153;27479;-75
2023/09/20 09:20:47;;;;;;;1.52;1.10;;;32.60;55.40;;;;;;917985;153;27422;-76
2023/09/20 09:23:13;;;;;;;1.35;1.20;;;32.70;54.60;;;;;;916741;153;27471;-75
2023/09/20 09:25:43;;;;;;;1.50;0.90;;;32.70;53.90;;;;;;915551;152;27843;-78
2023/09/20 09:28:09;;;;;;;1.65;1.30;;;32.50;53.30;;;;;;910743;153;27383;-76
2023/09/20 09:30:36;;;;;;;1.27;1.17;;;32.20;53.10;;;;;;920427;153;27501;-76
2023/09/20 09:33:05;;;;;;;1.05;1.02;;;32.10;53.10;;;;;;921540;153;27421;-75
2023/09/20 09:35:32;;;;;;;2.27;1.10;;;31.80;53.20;;;;;;911319;153;27374;-75
2023/09/20 09:38:01;;;;;;;0.82;0.80;;;31.70;53.50;;;;;;903739;153;27415;-76
2023/09/20 09:40:28;;;;;;;1.35;1.20;;;31.50;53.50;;;;;;905066;153;27513;-75
2023/09/20 09:42:54;;;;;;;1.92;1.10;;;31.40;53.60;;;;;;904472;153;27388;-76
2023/09/20 09:45:33;;;;;;;1.20;1.10;;;31.30;53.40;;;;;;917660;151;27318;-75
2023/09/20 09:48:00;;;;;;;2.55;1.12;;;31.20;53.30;;;;;;916182;150;27429;-76
2023/09/20 09:50:26;;;;;;;1.30;1.20;;;31.10;53.50;;;;;;941002;146;27384;-77
2023/09/20 09:52:53;;;;;;;1.40;1.12;;;31.00;53.30;;;;;;947457;147;28201;-76
2023/09/20 09:55:19;;;;;;;2.17;1.30;;;30.90;53.10;;;;;;948071;148;27713;-75
2023/09/20 09:57:46;;;;;;;2.12;1.60;;;30.80;53.10;;;;;;948074;148;27320;-75
2023/09/20 10:00:13;;;;;;;1.82;1.50;;;30.60;53.10;;;;;;949347;148;27288;-76
2023/09/20 10:02:40;;;;;;;1.65;1.55;;;30.50;53.20;;;;;;934337;149;27338;-76
2023/09/20 10:05:07;;;;;;;1.62;1.30;;;30.40;53.20;;;;;;931699;149;27355;-75
2023/09/20 10:07:33;;;;;;;2.33;1.67;;;30.20;52.70;;;;;;949512;147;27302;-76
2023/09/20 10:09:59;;;;;;;2.70;1.90;;;30.00;52.80;;;;;;950589;147;27334;-76
2023/09/20 10:12:25;;;;;;;1.62;1.52;;;29.80;52.80;;;;;;950345;147;27304;-76
2023/09/20 10:14:52;;;;;;;1.65;1.27;;;29.60;53.00;;;;;;951286;147;27336;-75
2023/09/20 10:17:21;;;;;;;3.40;1.60;;;29.30;53.20;;;;;;949110;147;27348;-75
2023/09/20 10:19:53;;;;;;;1.30;1.22;;;29.10;54.10;;;;;;955332;146;27321;-75
2023/09/20 10:22:17;;;;;;;1.50;1.30;;;28.90;53.90;;;;;;945489;149;27365;-76
2023/09/20 10:25:00;;;;;;;1.30;1.17;;;28.80;54.30;;;;;;946240;149;27454;-76
2023/09/20 10:27:30;;;;;;;0.98;0.90;;;28.60;54.50;;;;;;946059;149;27916;-76
2023/09/20 10:30:01;;;;;;;1.22;1.10;;;28.60;54.70;;;;;;946474;149;27333;-76
2023/09/20 10:32:26;;;;;;;1.10;1.05;;;28.60;54.90;;;;;;944898;149;27369;-76
2023/09/20 10:35:19;;;;;;;1.35;1.25;;;28.60;54.70;;;;;;943669;149;28111;-75
2023/09/20 10:38:08;;;;;;;2.25;1.30;;;28.60;54.70;;;;;;946198;148;27381;-77
2023/09/20 10:40:49;;;;;;;1.12;0.88;;;28.60;54.80;;;;;;930741;150;27365;-77
2023/09/20 10:43:25;;;;;;;0.88;0.80;;;28.60;54.60;;;;;;945057;149;27360;-77
2023/09/20 10:45:50;;;;;;;1.60;1.20;;;28.60;54.40;;;;;;946158;148;27814;-77
2023/09/20 10:48:23;;;;;;;1.30;1.02;;;28.60;54.50;;;;;;946308;149;27398;-77
2023/09/20 10:50:49;;;;;;;1.20;1.10;;;28.60;54.60;;;;;;942222;150;28317;-77
2023/09/20 10:53:18;;;;;;;1.45;1.05;;;28.60;54.70;;;;;;951990;148;27382;-78
2023/09/20 10:55:43;;;;;;;1.52;0.90;;;28.70;54.70;;;;;;936227;150;27356;-77
2023/09/20 10:58:09;;;;;;;4.08;1.30;;;28.80;54.80;;;;;;918262;151;27375;-78
2023/09/20 11:00:36;;;;;;;2.05;1.32;;;28.90;54.60;;;;;;929275;151;27341;-77
2023/09/20 11:03:06;;;;;;;0.82;0.80;;;29.00;54.70;;;;;;947121;149;27387;-77
2023/09/20 11:05:32;;;;;;;1.95;1.00;;;29.10;54.70;;;;;;945284;149;27334;-77
2023/09/20 11:08:03;;;;;;;1.12;0.75;;;29.20;54.70;;;;;;945782;149;27326;-77
2023/09/20 11:10:26;;;;;;;0.80;0.78;;;29.40;54.30;;;;;;945724;149;27369;-78
2023/09/20 11:12:55;;;;;;;0.93;0.85;;;29.50;54.50;;;;;;927062;151;27431;-78
2023/09/20 11:15:18;;;;;;;1.22;1.00;;;29.60;54.00;;;;;;946969;149;27366;-77
2023/09/20 11:17:45;;;;;;;0.80;0.68;;;29.70;53.70;;;;;;934208;151;26279;-77
2023/09/20 11:20:12;;;;;;;1.37;0.93;;;29.70;53.50;;;;;;947097;149;27349;-78
2023/09/20 11:22:38;;;;;;;0.80;0.80;;;29.80;53.40;;;;;;946726;149;27386;-77
2023/09/20 11:25:05;;;;;;;0.80;0.80;;;29.80;53.50;;;;;;916986;152;27324;-77
2023/09/20 11:27:36;;;;;;;1.30;0.65;;;29.90;53.30;;;;;;930297;151;27416;-77
2023/09/20 11:30:11;;;;;;;1.40;0.60;;;29.90;53.00;;;;;;945908;149;27370;-78
2023/09/20 11:32:36;;;;;;;0.85;0.72;;;29.90;52.60;;;;;;927317;151;27351;-77
2023/09/20 11:35:03;;;;;;;1.07;0.80;;;29.90;52.40;;;;;;945668;149;27358;-77
2023/09/20 11:37:32;;;;;;;0.78;0.78;;;29.90;52.30;;;;;;946966;149;27359;-77
2023/09/20 11:39:59;;;;;;;2.02;1.25;;;29.80;52.20;;;;;;944746;148;27879;-77
2023/09/20 11:42:26;;;;;;;0.93;0.80;;;29.70;52.10;;;;;;940331;149;27266;-78
2023/09/20 11:44:58;;;;;;;0.82;0.82;;;29.70;52.30;;;;;;923007;153;27465;-77
2023/09/20 11:47:24;;;;;;;1.22;1.10;;;29.60;52.00;;;;;;925742;151;27382;-76
2023/09/20 11:49:51;;;;;;;1.30;0.82;;;29.50;51.90;;;;;;929151;151;27445;-79
2023/09/20 11:52:23;;;;;;;1.87;1.07;;;29.40;52.00;;;;;;905498;154;27427;-79
2023/09/20 11:54:49;;;;;;;0.90;0.90;;;29.40;52.20;;;;;;919939;152;27810;-77
2023/09/20 11:57:16;;;;;;;1.42;0.93;;;29.30;52.10;;;;;;925343;152;27388;-79
2023/09/20 11:59:43;;;;;;;1.00;0.95;;;29.20;52.10;;;;;;928539;151;27380;-79
2023/09/20 12:02:12;;;;;;;1.00;0.80;;;29.10;52.00;;;;;;924105;151;27305;-78
2023/09/20 12:04:36;;;;;;;0.78;0.78;;;29.10;52.10;;;;;;919827;150;27924;-76
2023/09/20 12:07:02;;;;;;;2.47;1.00;;;29.10;52.20;;;;;;921139;153;27449;-78
2023/09/20 12:09:29;;;;;;;0.78;0.78;;;29.00;52.10;;;;;;922116;150;28315;-79
2023/09/20 12:11:55;;;;;;;1.22;0.88;;;29.00;52.30;;;;;;928412;149;27419;-78
2023/09/20 12:14:22;;;;;;;0.70;0.70;;;28.90;52.00;;;;;;908521;154;27304;-78
2023/09/20 12:16:49;;;;;;;1.92;1.05;;;28.90;52.20;;;;;;911361;153;27354;-77
2023/09/20 12:19:15;;;;;;;1.00;0.98;;;28.90;52.20;;;;;;919349;152;27403;-78
2023/09/20 12:21:42;;;;;;;1.47;1.00;;;28.80;52.20;;;;;;920821;152;27428;-79
2023/09/20 12:24:09;;;;;;;0.75;0.75;;;28.80;52.20;;;;;;919317;152;27369;-79
2023/09/20 12:26:35;;;;;;;1.75;1.07;;;28.80;52.20;;;;;;926964;151;27359;-77
2023/09/20 12:29:01;;;;;;;1.20;1.10;;;28.70;52.10;;;;;;918829;152;27377;-79
2023/09/20 12:31:28;;;;;;;1.37;1.27;;;28.70;52.20;;;;;;919939;152;27407;-77
2023/09/20 12:33:55;;;;;;;2.08;1.10;;;28.60;52.20;;;;;;918723;152;27679;-77
2023/09/20 12:36:23;;;;;;;1.40;1.10;;;28.60;52.30;;;;;;915695;152;27691;-78
2023/09/20 12:38:48;;;;;;;1.65;0.98;;;28.60;52.30;;;;;;921938;152;27455;-76
2023/09/20 12:41:15;;;;;;;1.20;1.10;;;28.50;52.20;;;;;;916303;152;27406;-78
2023/09/20 12:43:41;;;;;;;1.00;0.90;;;28.50;52.20;;;;;;929236;149;27403;-79
2023/09/20 12:46:08;;;;;;;1.27;0.90;;;28.50;52.20;;;;;;922363;151;27305;-79
2023/09/20 12:48:37;;;;;;;0.90;0.88;;;28.50;52.10;;;;;;922667;151;27379;-76
2023/09/20 12:51:01;;;;;;;1.32;1.20;;;28.40;51.90;;;;;;930104;148;27336;-78
2023/09/20 12:53:28;;;;;;;1.30;1.00;;;28.30;51.80;;;;;;934038;150;27304;-79
2023/09/20 12:55:54;;;;;;;1.22;0.95;;;28.20;51.80;;;;;;942631;149;27307;-75
2023/09/20 12:58:21;;;;;;;0.90;0.90;;;28.20;52.00;;;;;;941618;149;27305;-77
2023/09/20 13:00:49;;;;;;;1.52;0.98;;;28.10;52.10;;;;;;948042;149;27458;-75
2023/09/20 13:03:14;;;;;;;1.30;1.20;;;28.10;52.40;;;;;;946000;149;27352;-74
2023/09/20 13:05:40;;;;;;;1.27;0.98;;;28.10;52.70;;;;;;945125;148;27300;-74
2023/09/20 13:08:07;;;;;;;1.32;1.02;;;28.10;52.70;;;;;;926745;151;27331;-76
2023/09/20 13:10:33;;;;;;;1.40;1.22;;;28.10;52.80;;;;;;935885;149;27380;-75
2023/09/20 13:13:03;;;;;;;1.40;1.02;;;28.10;52.90;;;;;;924674;151;27360;-74
2023/09/20 13:15:27;;;;;;;1.57;1.07;;;28.20;52.80;;;;;;928918;150;27409;-75
2023/09/20 13:17:55;;;;;;;1.17;1.17;;;28.20;52.70;;;;;;937206;150;27338;-75
2023/09/20 13:20:20;;;;;;;2.83;1.10;;;28.30;52.60;;;;;;936994;150;27506;-77
2023/09/20 13:22:47;;;;;;;1.60;1.15;;;28.40;52.50;;;;;;955251;148;27429;-75
2023/09/20 13:25:19;;;;;;;2.15;1.10;;;28.40;52.30;;;;;;931088;151;27388;-76
2023/09/20 13:27:40;;;;;;;1.10;1.00;;;28.50;52.20;;;;;;932618;152;27314;-75